Time;durP1;ratioP1;P1;durP2;ratioP2;P2;SDS_P1;SDS_P2;PMS_P1;PMS_P2;Temp;Humidity;BMP_temperature;BMP_pressure;BME280_temperature;BME280_humidity;BME280_pressure;Samples;Min_cycle;Max_cycle;Signal;HPM_P1;HPM_P2
2022/09/22 00:01:56;;;;;;;3.00;2.10;;;;;6.10;94656.00;;;;7395643;19;20145;-78
2022/09/22 00:04:25;;;;;;;4.57;2.00;;;;;6.00;94645.00;;;;7397173;19;20137;-78
2022/09/22 00:07:00;;;;;;;3.43;2.10;;;;;5.90;94655.00;;;;7396726;19;20206;-78
2022/09/22 00:09:28;;;;;;;2.03;1.80;;;;;5.90;94648.00;;;;7398581;19;20132;-79
2022/09/22 00:11:55;;;;;;;2.40;1.87;;;;;5.90;94653.00;;;;7392712;19;20179;-78
2022/09/22 00:14:30;;;;;;;3.00;1.90;;;;;5.80;94647.00;;;;7396338;19;20144;-78
2022/09/22 00:17:03;;;;;;;3.23;2.07;;;;;5.80;94648.00;;;;7395968;19;20164;-78
2022/09/22 00:19:38;;;;;;;3.30;2.23;;;;;6.00;94646.00;;;;7396167;19;20133;-79
2022/09/22 00:22:06;;;;;;;2.50;2.00;;;;;5.80;94642.00;;;;7395350;19;20133;-79
2022/09/22 00:24:34;;;;;;;3.80;2.10;;;;;5.70;94644.00;;;;7395599;19;20145;-79
2022/09/22 00:27:08;;;;;;;2.17;1.90;;;;;5.80;94641.00;;;;7398802;19;20126;-78
2022/09/22 00:29:36;;;;;;;3.07;2.20;;;;;5.60;94635.00;;;;7395698;19;20133;-78
2022/09/22 00:32:03;;;;;;;3.07;2.40;;;;;5.70;94634.00;;;;7394890;19;20141;-78
2022/09/22 00:34:44;;;;;;;4.80;2.43;;;;;5.50;94636.00;;;;7394508;19;20701;-79
2022/09/22 00:37:12;;;;;;;3.10;2.10;;;;;5.50;94631.00;;;;7391848;19;20140;-79
2022/09/22 00:39:46;;;;;;;4.23;2.00;;;;;5.60;94635.00;;;;7397228;19;20582;-77
2022/09/22 00:42:14;;;;;;;2.70;2.17;;;;;5.60;94633.00;;;;7392997;19;20152;-78
2022/09/22 00:44:43;;;;;;;3.43;2.17;;;;;5.60;94636.00;;;;7393522;19;20172;-78
2022/09/22 00:47:35;;;;;;;2.60;2.00;;;;;5.50;94625.00;;;;7392812;19;20128;-79
2022/09/22 00:50:20;;;;;;;3.70;2.40;;;;;5.50;94624.00;;;;7393004;19;20162;-78
2022/09/22 00:53:24;;;;;;;3.10;1.93;;;;;5.60;94618.00;;;;7394827;19;20164;-78
2022/09/22 00:55:57;;;;;;;3.03;2.00;;;;;5.80;94611.00;;;;7393756;19;20153;-78
2022/09/22 00:58:44;;;;;;;4.87;1.90;;;;;5.70;94608.00;;;;7395248;19;20184;-78
2022/09/22 01:01:14;;;;;;;2.10;1.80;;;;;5.70;94617.00;;;;7394236;19;20171;-78
2022/09/22 01:03:49;;;;;;;3.13;2.27;;;;;5.80;94613.00;;;;7396306;19;20445;-78
2022/09/22 01:06:22;;;;;;;3.97;1.97;;;;;5.90;94605.00;;;;7396248;19;20172;-78
2022/09/22 01:08:58;;;;;;;2.87;1.90;;;;;5.90;94600.00;;;;7395795;19;20184;-78
2022/09/22 01:11:27;;;;;;;2.43;2.00;;;;;6.00;94612.00;;;;7395150;19;20616;-78
2022/09/22 01:14:19;;;;;;;3.60;2.20;;;;;5.90;94609.00;;;;7393973;19;20486;-78
2022/09/22 01:17:19;;;;;;;4.13;1.93;;;;;5.70;94607.00;;;;7395793;19;20219;-81
2022/09/22 01:20:14;;;;;;;3.67;1.73;;;;;5.70;94597.00;;;;7396995;19;20484;-79
2022/09/22 01:23:24;;;;;;;3.73;2.20;;;;;5.60;94604.00;;;;7395597;19;20157;-79
2022/09/22 01:25:57;;;;;;;2.43;2.03;;;;;5.60;94604.00;;;;7403187;19;20160;-81
2022/09/22 01:29:18;;;;;;;2.87;2.17;;;;;5.60;94601.00;;;;7401588;19;20676;-78
2022/09/22 01:31:55;;;;;;;5.97;2.40;;;;;5.70;94614.00;;;;7395058;19;20148;-79
2022/09/22 01:34:42;;;;;;;2.57;2.00;;;;;5.70;94604.00;;;;7395104;19;20172;-79
2022/09/22 01:37:13;;;;;;;4.10;2.10;;;;;5.80;94602.00;;;;7397715;19;20132;-79
2022/09/22 01:40:04;;;;;;;4.20;1.77;;;;;5.40;94608.00;;;;7398225;19;20596;-79
2022/09/22 01:42:54;;;;;;;3.23;2.07;;;;;5.40;94612.00;;;;7395203;19;20160;-79
2022/09/22 01:45:30;;;;;;;3.57;2.13;;;;;5.50;94612.00;;;;7395339;19;20125;-78
2022/09/22 01:48:19;;;;;;;3.00;1.93;;;;;5.50;94612.00;;;;7396683;19;20141;-80
2022/09/22 01:51:05;;;;;;;3.30;2.40;;;;;5.60;94611.00;;;;7394248;19;20133;-79
2022/09/22 01:53:39;;;;;;;2.57;2.00;;;;;5.40;94606.00;;;;7393471;19;20576;-79
2022/09/22 01:56:17;;;;;;;2.37;2.10;;;;;5.50;94615.00;;;;7391474;19;20160;-79
2022/09/22 01:59:05;;;;;;;3.70;2.40;;;;;5.40;94609.00;;;;7393967;19;20742;-78
2022/09/22 02:01:49;;;;;;;4.13;2.57;;;;;5.30;94604.00;;;;7393804;19;20152;-76
2022/09/22 02:04:22;;;;;;;2.90;2.30;;;;;5.30;94606.00;;;;7396034;19;20156;-79
2022/09/22 02:07:04;;;;;;;2.50;2.30;;;;;5.30;94606.00;;;;7392983;19;20676;-79
2022/09/22 02:09:34;;;;;;;2.53;2.30;;;;;5.30;94605.00;;;;7394531;19;20133;-79
2022/09/22 02:12:08;;;;;;;3.93;2.40;;;;;5.30;94599.00;;;;7392459;19;20188;-78
2022/09/22 02:14:36;;;;;;;2.27;2.07;;;;;5.30;94602.00;;;;7391943;19;20148;-77
2022/09/22 02:17:04;;;;;;;2.30;2.07;;;;;5.30;94603.00;;;;7392057;19;20121;-79
2022/09/22 02:19:39;;;;;;;5.07;2.47;;;;;5.30;94608.00;;;;7391807;19;20621;-79
2022/09/22 02:22:10;;;;;;;3.13;2.00;;;;;5.20;94600.00;;;;7398331;19;20159;-79
2022/09/22 02:24:41;;;;;;;3.47;2.50;;;;;5.10;94593.00;;;;7402299;19;20158;-79
2022/09/22 02:27:25;;;;;;;2.57;2.30;;;;;5.10;94606.00;;;;7397220;19;20132;-79
2022/09/22 02:30:07;;;;;;;3.60;1.93;;;;;5.00;94598.00;;;;7399292;19;20166;-79
2022/09/22 02:32:58;;;;;;;2.50;2.13;;;;;5.10;94598.00;;;;7397986;19;20160;-79
2022/09/22 02:35:38;;;;;;;2.87;2.20;;;;;5.00;94597.00;;;;7398241;19;20165;-78
2022/09/22 02:38:21;;;;;;;3.07;2.10;;;;;5.00;94587.00;;;;7392906;19;20156;-78
2022/09/22 02:41:09;;;;;;;3.97;2.80;;;;;5.00;94581.00;;;;7401018;19;20140;-78
2022/09/22 02:44:10;;;;;;;3.87;2.50;;;;;5.00;94594.00;;;;7397369;19;20461;-79
2022/09/22 02:46:47;;;;;;;2.97;2.50;;;;;5.00;94591.00;;;;7400071;19;20155;-79
2022/09/22 02:49:22;;;;;;;4.97;2.13;;;;;5.00;94591.00;;;;7397598;19;20161;-78
2022/09/22 02:51:51;;;;;;;3.43;2.50;;;;;5.10;94586.00;;;;7399947;19;20153;-80
2022/09/22 02:54:19;;;;;;;5.80;2.33;;;;;5.10;94581.00;;;;7395320;19;20160;-77
2022/09/22 02:56:53;;;;;;;3.00;2.23;;;;;5.00;94577.00;;;;7396876;19;20561;-79
2022/09/22 02:59:24;;;;;;;2.60;2.30;;;;;5.00;94579.00;;;;7397109;19;20137;-79
2022/09/22 03:01:54;;;;;;;2.83;2.53;;;;;5.10;94585.00;;;;7396840;19;20156;-81
2022/09/22 03:04:29;;;;;;;6.57;2.97;;;;;5.10;94582.00;;;;7396067;19;20152;-80
2022/09/22 03:06:56;;;;;;;2.60;2.33;;;;;5.10;94578.00;;;;7397005;19;20636;-79
2022/09/22 03:09:24;;;;;;;3.20;2.53;;;;;5.10;94577.00;;;;7394677;19;20634;-80
2022/09/22 03:11:58;;;;;;;5.27;2.77;;;;;5.30;94577.00;;;;7395339;19;20215;-81
2022/09/22 03:14:26;;;;;;;4.33;2.50;;;;;5.30;94580.00;;;;7396842;19;20117;-79
2022/09/22 03:16:53;;;;;;;3.07;2.60;;;;;5.20;94565.00;;;;7396103;19;20164;-79
2022/09/22 03:19:27;;;;;;;4.50;2.80;;;;;5.10;94574.00;;;;7394295;19;20604;-80
2022/09/22 03:21:54;;;;;;;3.03;2.60;;;;;5.10;94578.00;;;;7397021;19;20160;-80
2022/09/22 03:24:24;;;;;;;4.40;2.57;;;;;5.10;94572.00;;;;7394990;19;20596;-79
2022/09/22 03:26:57;;;;;;;3.10;2.70;;;;;5.10;94576.00;;;;7397219;19;20179;-78
2022/09/22 03:29:26;;;;;;;3.70;2.70;;;;;5.10;94572.00;;;;7398831;19;20153;-81
2022/09/22 03:32:09;;;;;;;2.77;2.50;;;;;5.10;94570.00;;;;7405849;19;20140;-80
2022/09/22 03:34:57;;;;;;;7.23;5.13;;;;;5.20;94567.00;;;;7400738;19;20900;-77
2022/09/22 03:37:32;;;;;;;6.63;3.70;;;;;5.20;94568.00;;;;7392368;19;20224;-78
2022/09/22 03:40:06;;;;;;;9.40;3.20;;;;;5.10;94573.00;;;;7391320;19;20632;-78
2022/09/22 03:42:35;;;;;;;7.30;4.77;;;;;5.20;94566.00;;;;7395286;19;20615;-79
2022/09/22 03:45:04;;;;;;;5.77;3.77;;;;;5.20;94571.00;;;;7395820;19;20152;-79
2022/09/22 03:47:38;;;;;;;3.87;3.30;;;;;5.20;94567.00;;;;7394207;19;20227;-78
2022/09/22 03:50:06;;;;;;;4.67;2.83;;;;;5.30;94565.00;;;;7395280;19;20161;-78
2022/09/22 03:52:34;;;;;;;4.63;3.00;;;;;5.30;94566.00;;;;7395128;19;20172;-77
2022/09/22 03:55:10;;;;;;;3.17;2.60;;;;;5.10;94567.00;;;;7397580;19;20139;-78
2022/09/22 03:57:39;;;;;;;5.67;3.93;;;;;5.00;94552.00;;;;7394047;19;20220;-78
2022/09/22 04:00:09;;;;;;;5.73;3.77;;;;;5.10;94560.00;;;;7393099;19;20164;-79
2022/09/22 04:02:43;;;;;;;4.93;4.00;;;;;5.00;94553.00;;;;7396449;19;20139;-77
2022/09/22 04:05:11;;;;;;;7.47;5.27;;;;;5.00;94556.00;;;;7396012;19;20147;-78
2022/09/22 04:07:41;;;;;;;5.00;4.47;;;;;4.90;94557.00;;;;7396005;19;20149;-79
2022/09/22 04:10:15;;;;;;;9.60;3.80;;;;;4.90;94553.00;;;;7395776;19;20144;-80
2022/09/22 04:12:43;;;;;;;3.37;2.87;;;;;4.80;94553.00;;;;7393748;19;20240;-77
2022/09/22 04:15:10;;;;;;;6.93;3.00;;;;;4.90;94557.00;;;;7396399;19;20479;-78
2022/09/22 04:17:45;;;;;;;3.97;2.80;;;;;4.80;94551.00;;;;7389636;19;20128;-79
2022/09/22 04:20:12;;;;;;;3.93;2.57;;;;;4.80;94567.00;;;;7391653;19;20599;-78
2022/09/22 04:22:40;;;;;;;3.93;2.70;;;;;4.70;94561.00;;;;7392249;19;20240;-77
2022/09/22 04:25:17;;;;;;;3.63;2.80;;;;;4.80;94570.00;;;;7394436;19;20140;-80
2022/09/22 04:27:44;;;;;;;7.03;4.10;;;;;4.60;94563.00;;;;7391316;19;20603;-77
2022/09/22 04:30:14;;;;;;;4.67;3.30;;;;;4.60;94563.00;;;;7393361;19;20149;-77
2022/09/22 04:32:48;;;;;;;6.23;3.10;;;;;4.50;94561.00;;;;7394363;19;20626;-78
2022/09/22 04:35:22;;;;;;;3.83;3.10;;;;;4.60;94557.00;;;;7391427;19;20175;-79
2022/09/22 04:37:57;;;;;;;5.30;4.00;;;;;4.50;94559.00;;;;7392048;19;20208;-78
2022/09/22 04:40:25;;;;;;;7.97;5.00;;;;;4.50;94559.00;;;;7396050;19;20155;-78
2022/09/22 04:42:52;;;;;;;6.23;3.73;;;;;4.50;94563.00;;;;7391682;19;20623;-79
2022/09/22 04:45:26;;;;;;;6.67;5.00;;;;;4.50;94567.00;;;;7391955;19;20137;-79
2022/09/22 04:47:54;;;;;;;9.20;5.50;;;;;4.50;94552.00;;;;7391224;19;20153;-78
2022/09/22 04:50:23;;;;;;;6.60;4.73;;;;;4.50;94559.00;;;;7393599;19;20153;-78
2022/09/22 04:52:57;;;;;;;6.20;4.90;;;;;4.50;94562.00;;;;7392985;19;20147;-79
2022/09/22 04:55:25;;;;;;;6.63;4.70;;;;;4.50;94554.00;;;;7394385;19;20137;-80
2022/09/22 04:57:55;;;;;;;6.33;4.97;;;;;4.50;94553.00;;;;7392517;19;20155;-78
2022/09/22 05:00:31;;;;;;;14.73;7.00;;;;;4.60;94555.00;;;;7409966;19;20165;-80
2022/09/22 05:03:00;;;;;;;8.50;5.80;;;;;4.60;94554.00;;;;7406710;19;20169;-80
2022/09/22 05:05:28;;;;;;;6.73;4.67;;;;;4.60;94554.00;;;;7404604;19;20141;-82
2022/09/22 05:08:04;;;;;;;6.60;4.40;;;;;4.60;94545.00;;;;7403120;19;20148;-80
2022/09/22 05:10:34;;;;;;;7.93;4.87;;;;;4.70;94552.00;;;;7410545;19;20140;-82
2022/09/22 05:13:02;;;;;;;8.30;4.70;;;;;4.60;94550.00;;;;7408182;19;20176;-83
2022/09/22 05:15:36;;;;;;;8.60;4.57;;;;;4.70;94556.00;;;;7407204;19;20140;-82
2022/09/22 05:18:04;;;;;;;3.93;3.43;;;;;4.60;94551.00;;;;7410621;19;20160;-78
2022/09/22 05:20:32;;;;;;;5.33;3.83;;;;;4.60;94551.00;;;;7412950;19;20213;-82
2022/09/22 05:23:06;;;;;;;5.40;3.80;;;;;4.60;94558.00;;;;7413479;19;21109;-81
2022/09/22 05:25:34;;;;;;;4.00;3.33;;;;;4.60;94559.00;;;;7416314;19;20190;-79
2022/09/22 05:28:02;;;;;;;5.00;3.53;;;;;4.80;94557.00;;;;7417360;19;20157;-80
2022/09/22 05:30:36;;;;;;;5.87;3.70;;;;;4.90;94564.00;;;;7410691;19;20152;-80
2022/09/22 05:33:10;;;;;;;6.57;3.37;;;;;4.90;94554.00;;;;7408805;19;20177;-80
2022/09/22 05:35:51;;;;;;;5.33;3.67;;;;;5.10;94561.00;;;;7403958;19;20148;-76
2022/09/22 05:38:19;;;;;;;4.80;3.77;;;;;5.20;94562.00;;;;7401002;19;20140;-78
2022/09/22 05:40:54;;;;;;;5.10;3.57;;;;;5.30;94572.00;;;;7401237;19;20651;-79
2022/09/22 05:43:22;;;;;;;4.13;3.13;;;;;5.40;94567.00;;;;7402039;19;20129;-81
2022/09/22 05:45:50;;;;;;;5.77;3.30;;;;;5.50;94560.00;;;;7398888;19;20121;-81
2022/09/22 05:48:25;;;;;;;4.77;3.53;;;;;5.70;94563.00;;;;7398921;19;20160;-79
2022/09/22 05:51:00;;;;;;;4.43;3.37;;;;;5.80;94569.00;;;;7399871;19;20172;-81
2022/09/22 05:53:34;;;;;;;6.63;3.97;;;;;6.00;94570.00;;;;7398312;19;20152;-81
2022/09/22 05:56:02;;;;;;;4.50;3.50;;;;;6.10;94566.00;;;;7403406;19;20165;-79
2022/09/22 05:58:30;;;;;;;4.40;3.70;;;;;6.30;94570.00;;;;7403243;19;20163;-79
2022/09/22 06:01:04;;;;;;;7.90;3.90;;;;;6.40;94576.00;;;;7406883;19;20159;-80
2022/09/22 06:03:32;;;;;;;3.93;2.80;;;;;6.50;94572.00;;;;7407998;19;20141;-82
2022/09/22 06:06:00;;;;;;;6.20;3.57;;;;;6.60;94572.00;;;;7406492;19;20684;-79
2022/09/22 06:08:34;;;;;;;4.73;3.43;;;;;6.90;94569.00;;;;7403444;19;20158;-79
2022/09/22 06:11:02;;;;;;;4.70;3.63;;;;;7.00;94574.00;;;;7403310;19;20153;-80
2022/09/22 06:13:29;;;;;;;4.23;3.23;;;;;7.20;94566.00;;;;7402292;19;20180;-79
2022/09/22 06:16:03;;;;;;;4.90;3.50;;;;;7.40;94567.00;;;;7404771;19;20208;-78
2022/09/22 06:18:31;;;;;;;4.80;3.37;;;;;7.50;94571.00;;;;7401311;19;20157;-81
2022/09/22 06:20:58;;;;;;;5.40;3.40;;;;;7.60;94568.00;;;;7405218;19;20133;-80
2022/09/22 06:23:32;;;;;;;4.57;3.07;;;;;7.70;94563.00;;;;7401214;19;20140;-80
2022/09/22 06:26:00;;;;;;;3.73;3.00;;;;;7.80;94560.00;;;;7404216;19;20155;-80
2022/09/22 06:28:28;;;;;;;4.53;3.33;;;;;7.80;94569.00;;;;7404772;19;20152;-80
2022/09/22 06:31:03;;;;;;;4.00;3.33;;;;;8.00;94559.00;;;;7410653;19;20151;-79
2022/09/22 06:33:37;;;;;;;6.43;3.20;;;;;8.10;94563.00;;;;7405444;19;20153;-79
2022/09/22 06:36:29;;;;;;;4.67;3.07;;;;;8.20;94564.00;;;;7406612;19;20576;-81
2022/09/22 06:38:58;;;;;;;5.30;3.10;;;;;8.30;94576.00;;;;7422237;19;20181;-83
2022/09/22 06:41:33;;;;;;;4.27;2.80;;;;;8.50;94570.00;;;;7402621;19;20152;-82
2022/09/22 06:44:01;;;;;;;5.63;3.00;;;;;8.60;94571.00;;;;7403406;19;20677;-80
2022/09/22 06:46:31;;;;;;;4.00;3.10;;;;;8.50;94568.00;;;;7404842;19;20157;-81
2022/09/22 06:49:05;;;;;;;5.23;2.83;;;;;8.60;94568.00;;;;7404924;19;20176;-80
2022/09/22 06:51:35;;;;;;;3.10;2.80;;;;;8.70;94565.00;;;;7400673;19;20156;-81
2022/09/22 06:54:05;;;;;;;2.60;2.40;;;;;8.90;94564.00;;;;7398775;19;20157;-79
2022/09/22 06:56:39;;;;;;;4.30;2.87;;;;;9.00;94567.00;;;;7404658;19;20173;-80
2022/09/22 06:59:11;;;;;;;3.65;2.65;;;;;9.20;94567.00;;;;7404026;19;20173;-81
2022/09/22 07:01:47;;;;;;;2.90;2.45;;;;;9.40;94562.00;;;;7404936;19;20153;-82
2022/09/22 07:04:16;;;;;;;4.00;2.30;;;;;9.50;94564.00;;;;7410787;19;20142;-81
2022/09/22 07:06:44;;;;;;;3.42;2.30;;;;;9.80;94565.00;;;;7417101;19;20136;-83
2022/09/22 07:09:18;;;;;;;4.00;2.60;;;;;9.80;94568.00;;;;7423534;19;20147;-84
2022/09/22 07:11:47;;;;;;;2.50;2.20;;;;;10.10;94565.00;;;;7424920;19;20176;-81
2022/09/22 07:14:18;;;;;;;5.45;2.20;;;;;10.00;94562.00;;;;7426825;19;20620;-75
2022/09/22 07:16:56;;;;;;;4.10;2.03;;;;;10.00;94565.00;;;;7427786;19;20136;-79
2022/09/22 07:19:25;;;;;;;3.08;2.20;;;;;10.30;94564.00;;;;7420502;19;20163;-81
2022/09/22 07:21:53;;;;;;;3.08;1.90;;;;;10.20;94558.00;;;;7413863;19;20148;-80
2022/09/22 07:24:26;;;;;;;2.17;1.70;;;;;10.30;94558.00;;;;7402104;19;20546;-79
2022/09/22 07:26:54;;;;;;;2.60;1.90;;;;;10.50;94562.00;;;;7402522;19;20652;-80
2022/09/22 07:29:22;;;;;;;6.05;2.03;;;;;10.70;94560.00;;;;7400703;19;20141;-82
2022/09/22 07:31:58;;;;;;;3.92;2.03;;;;;11.00;94568.00;;;;7408470;19;20129;-80
2022/09/22 07:34:39;;;;;;;2.55;1.88;;;;;11.40;94561.00;;;;7404734;19;20915;-81
2022/09/22 07:37:15;;;;;;;2.10;1.90;;;;;11.30;94567.00;;;;7401921;19;20604;-80
2022/09/22 07:39:44;;;;;;;2.55;1.77;;;;;11.30;94567.00;;;;7403821;19;20539;-82
2022/09/22 07:42:12;;;;;;;3.30;1.88;;;;;11.20;94561.00;;;;7397997;19;20174;-79
2022/09/22 07:50:38;;;;;;;2.22;1.27;;;;;11.50;94550.00;;;;7396444;19;20152;-78
2022/09/22 07:53:06;;;;;;;1.65;1.45;;;;;11.30;94562.00;;;;7399786;19;20156;-79
2022/09/22 07:55:35;;;;;;;2.20;1.45;;;;;11.60;94559.00;;;;7397381;19;20164;-81
2022/09/22 07:58:09;;;;;;;1.80;1.30;;;;;11.50;94561.00;;;;7394387;19;20647;-80
2022/09/22 08:00:43;;;;;;;1.80;1.40;;;;;11.70;94558.00;;;;7395274;19;20133;-80
2022/09/22 08:03:17;;;;;;;2.17;1.80;;;;;11.80;94553.00;;;;7393112;19;20147;-79
2022/09/22 08:05:50;;;;;;;2.47;1.95;;;;;11.80;94561.00;;;;7391667;19;20514;-79
2022/09/22 08:08:33;;;;;;;2.10;1.42;;;;;11.90;94553.00;;;;7391108;19;20154;-80
2022/09/22 08:11:12;;;;;;;4.13;2.80;;;;;11.80;94550.00;;;;7394880;19;20616;-78
2022/09/22 08:14:05;;;;;;;10.70;5.22;;;;;12.10;94556.00;;;;7394204;19;20152;-78
2022/09/22 08:16:38;;;;;;;2.38;1.73;;;;;12.00;94547.00;;;;7395762;19;20208;-79
2022/09/22 08:19:15;;;;;;;1.83;1.25;;;;;12.20;94549.00;;;;7390663;19;20149;-78
2022/09/22 08:21:45;;;;;;;1.48;1.30;;;;;12.60;94551.00;;;;7395171;19;20166;-81
2022/09/22 08:24:20;;;;;;;4.93;1.45;;;;;12.70;94546.00;;;;7396978;19;20642;-79
2022/09/22 08:26:54;;;;;;;1.42;1.33;;;;;12.70;94550.00;;;;7396498;19;20175;-81
2022/09/22 08:29:23;;;;;;;2.08;1.23;;;;;13.00;94552.00;;;;7395637;19;20603;-81
2022/09/22 08:31:51;;;;;;;1.40;1.10;;;;;13.10;94556.00;;;;7394234;19;20643;-81
2022/09/22 08:34:38;;;;;;;2.53;1.70;;;;;13.10;94554.00;;;;7393615;19;20196;-79
2022/09/22 08:37:12;;;;;;;2.58;1.10;;;;;13.10;94548.00;;;;7392390;19;20611;-79
2022/09/22 08:39:52;;;;;;;1.73;1.38;;;;;13.30;94553.00;;;;7391919;19;20627;-81
2022/09/22 08:42:21;;;;;;;1.40;1.00;;;;;13.50;94545.00;;;;7393462;19;20168;-78
2022/09/22 08:45:15;;;;;;;1.42;1.02;;;;;13.80;94554.00;;;;7393302;19;21051;-81
2022/09/22 08:53:50;;;;;;;1.40;1.10;;;;;13.60;94553.00;;;;7393340;19;20166;-80
2022/09/22 08:57:21;;;;;;;1.27;1.17;;;;;13.20;94551.00;;;;7393768;19;20266;-80
2022/09/22 09:00:10;;;;;;;2.53;1.10;;;;;13.60;94549.00;;;;7393483;19;20141;-79
2022/09/22 09:02:59;;;;;;;1.90;1.17;;;;;13.90;94544.00;;;;7396558;19;20125;-80
2022/09/22 09:05:59;;;;;;;2.20;1.50;;;;;14.00;94546.00;;;;7391300;19;20140;-78
2022/09/22 09:09:02;;;;;;;1.50;1.30;;;;;14.40;94551.00;;;;7393937;19;20156;-79
2022/09/22 09:12:05;;;;;;;2.05;1.50;;;;;14.70;94553.00;;;;7398115;19;20594;-79
2022/09/22 09:14:58;;;;;;;2.67;1.80;;;;;14.50;94557.00;;;;7399090;19;20151;-78
2022/09/22 09:17:32;;;;;;;1.98;1.30;;;;;14.50;94556.00;;;;7395028;19;20137;-78
2022/09/22 09:20:25;;;;;;;1.52;1.38;;;;;14.40;94556.00;;;;7392762;19;20156;-78
2022/09/22 09:22:54;;;;;;;2.10;1.25;;;;;14.00;94554.00;;;;7397383;19;20123;-77
2022/09/22 09:25:35;;;;;;;2.08;1.15;;;;;14.20;94554.00;;;;7391679;19;20135;-79
2022/09/22 09:28:11;;;;;;;1.77;1.13;;;;;14.30;94552.00;;;;7389040;19;20611;-78
2022/09/22 09:30:51;;;;;;;2.38;1.27;;;;;14.60;94566.00;;;;7402822;19;20132;-78
2022/09/22 09:33:36;;;;;;;3.08;1.00;;;;;15.10;94559.00;;;;7395314;19;20177;-79
2022/09/22 09:36:21;;;;;;;2.00;1.33;;;;;15.10;94552.00;;;;7395558;19;20497;-78
2022/09/22 09:38:53;;;;;;;1.30;1.10;;;;;15.10;94548.00;;;;7399272;19;20584;-79
2022/09/22 09:41:30;;;;;;;3.05;1.40;;;;;15.00;94548.00;;;;7397888;19;20136;-79
2022/09/22 09:44:03;;;;;;;1.40;1.30;;;;;15.00;94560.00;;;;7400798;19;20141;-79
2022/09/22 09:47:05;;;;;;;3.33;2.35;;;;;15.50;94550.00;;;;7399164;19;20176;-80
2022/09/22 09:49:33;;;;;;;2.63;1.30;;;;;15.50;94550.00;;;;7398604;19;20156;-81
2022/09/22 09:52:12;;;;;;;1.45;1.20;;;;;15.40;94547.00;;;;7398478;19;20125;-80
2022/09/22 09:54:46;;;;;;;2.80;1.30;;;;;15.40;94549.00;;;;7399523;19;21003;-78
2022/09/22 09:57:21;;;;;;;4.18;1.30;;;;;15.30;94542.00;;;;7396339;19;20190;-79
2022/09/22 10:00:30;;;;;;;1.30;1.20;;;;;15.80;94560.00;;;;7399204;19;20129;-80
2022/09/22 10:03:34;;;;;;;2.05;1.40;;;;;16.20;94553.00;;;;7403583;19;20587;-79
2022/09/22 10:06:07;;;;;;;1.13;1.02;;;;;15.80;94555.00;;;;7399775;19;20132;-79
2022/09/22 10:08:50;;;;;;;1.83;1.40;;;;;16.00;94554.00;;;;7402750;19;20137;-80
2022/09/22 10:11:29;;;;;;;2.17;1.20;;;;;16.00;94547.00;;;;7400343;19;20125;-79
2022/09/22 10:14:15;;;;;;;3.85;1.20;;;;;15.60;94554.00;;;;7399685;19;20164;-79
2022/09/22 10:16:51;;;;;;;4.30;0.90;;;;;15.90;94552.00;;;;7399790;19;20169;-79
2022/09/22 10:19:30;;;;;;;1.20;1.00;;;;;15.70;94546.00;;;;7396612;19;20143;-78
2022/09/22 10:22:26;;;;;;;1.13;1.02;;;;;16.20;94544.00;;;;7399714;19;20593;-79
2022/09/22 10:25:17;;;;;;;1.13;1.02;;;;;16.20;94539.00;;;;7401260;19;20143;-79
2022/09/22 10:27:58;;;;;;;1.23;1.05;;;;;16.20;94538.00;;;;7398407;19;20144;-79
2022/09/22 10:30:36;;;;;;;1.27;1.00;;;;;16.30;94545.00;;;;7400075;19;20153;-80
2022/09/22 10:33:11;;;;;;;1.73;1.10;;;;;16.50;94534.00;;;;7399716;19;20543;-78
2022/09/22 10:36:01;;;;;;;4.50;1.20;;;;;16.70;94539.00;;;;7393430;19;20161;-79
2022/09/22 10:38:32;;;;;;;6.72;1.20;;;;;17.10;94534.00;;;;7397370;19;20129;-78
2022/09/22 10:41:34;;;;;;;1.13;1.02;;;;;17.20;94539.00;;;;7392387;19;20140;-79
2022/09/22 10:44:13;;;;;;;1.00;0.90;;;;;17.10;94527.00;;;;7396358;19;20133;-80
2022/09/22 10:47:24;;;;;;;1.50;1.00;;;;;17.10;94531.00;;;;7397223;19;20156;-78
2022/09/22 10:50:17;;;;;;;0.95;0.95;;;;;16.80;94532.00;;;;7396505;19;20144;-79
2022/09/22 10:53:04;;;;;;;2.13;1.30;;;;;16.60;94519.00;;;;7397519;19;20473;-78
2022/09/22 10:56:05;;;;;;;3.22;1.88;;;;;17.00;94527.00;;;;7395946;19;20149;-80
2022/09/22 10:59:13;;;;;;;2.33;1.38;;;;;17.00;94524.00;;;;7397375;19;20151;-80
2022/09/22 11:01:59;;;;;;;1.25;0.90;;;;;17.00;94533.00;;;;7395446;19;20565;-79
2022/09/22 11:05:00;;;;;;;3.92;1.25;;;;;16.50;94529.00;;;;7397677;19;20161;-80
2022/09/22 11:14:15;;;;;;;1.23;1.13;;;;;17.30;94526.00;;;;7394676;19;20500;-81
2022/09/22 11:17:02;;;;;;;1.63;1.38;;;;;17.30;94520.00;;;;7395813;19;20145;-79
2022/09/22 11:19:51;;;;;;;1.80;1.20;;;;;16.90;94515.00;;;;7394027;19;20156;-80
2022/09/22 11:22:56;;;;;;;1.75;1.30;;;;;17.10;94519.00;;;;7393735;19;20212;-78
2022/09/22 11:26:10;;;;;;;1.75;0.93;;;;;17.50;94513.00;;;;7393872;19;20214;-81
2022/09/22 11:29:16;;;;;;;3.42;1.60;;;;;17.60;94514.00;;;;7398380;19;20148;-81
2022/09/22 11:32:12;;;;;;;1.30;1.20;;;;;17.70;94510.00;;;;7396997;19;20159;-83
2022/09/22 11:35:25;;;;;;;6.20;1.40;;;;;18.10;94507.00;;;;7395923;19;20149;-80
2022/09/22 11:38:38;;;;;;;2.05;1.15;;;;;17.90;94515.00;;;;7393711;19;20140;-83
2022/09/22 11:41:52;;;;;;;1.98;1.17;;;;;18.30;94503.00;;;;7392715;19;20129;-81
2022/09/22 11:44:28;;;;;;;4.03;1.90;;;;;18.20;94507.00;;;;7392810;19;20486;-81
2022/09/22 11:47:04;;;;;;;1.92;1.40;;;;;18.70;94508.00;;;;7395147;19;20149;-80
2022/09/22 11:49:59;;;;;;;1.40;1.17;;;;;18.60;94505.00;;;;7393625;19;20176;-81
2022/09/22 11:52:52;;;;;;;3.92;1.30;;;;;18.60;94500.00;;;;7393272;19;20128;-80
2022/09/22 11:55:43;;;;;;;4.07;1.85;;;;;18.40;94505.00;;;;7393070;19;20188;-80
2022/09/22 11:58:22;;;;;;;2.10;1.38;;;;;18.90;94509.00;;;;7393295;19;20152;-80
2022/09/22 12:01:03;;;;;;;1.67;1.40;;;;;19.30;94499.00;;;;7394428;19;20137;-82
2022/09/22 12:03:57;;;;;;;2.60;1.73;;;;;19.00;94499.00;;;;7395206;19;20472;-82
2022/09/22 12:06:32;;;;;;;1.65;1.40;;;;;19.20;94496.00;;;;7394968;19;20849;-80
2022/09/22 12:09:15;;;;;;;3.83;1.20;;;;;19.40;94492.00;;;;7394339;19;20133;-81
2022/09/22 12:11:44;;;;;;;2.05;1.33;;;;;19.80;94497.00;;;;7392261;19;20479;-80
2022/09/22 12:14:19;;;;;;;3.70;1.77;;;;;19.90;94497.00;;;;7393073;19;20650;-79
2022/09/22 12:17:02;;;;;;;1.92;1.75;;;;;19.30;94495.00;;;;7392959;19;20216;-78
2022/09/22 12:20:00;;;;;;;1.92;1.20;;;;;19.80;94491.00;;;;7392426;19;20136;-81
2022/09/22 12:22:48;;;;;;;4.80;1.58;;;;;19.80;94499.00;;;;7390144;19;20153;-82
2022/09/22 12:25:42;;;;;;;2.85;1.40;;;;;19.80;94483.00;;;;7395212;19;20141;-81
2022/09/22 12:28:26;;;;;;;1.75;1.20;;;;;20.40;94490.00;;;;7392187;19;20124;-81
2022/09/22 12:31:15;;;;;;;1.48;1.23;;;;;20.20;94485.00;;;;7394578;19;20188;-84
2022/09/22 12:33:56;;;;;;;1.67;1.50;;;;;20.50;94487.00;;;;7392995;19;20173;-81
2022/09/22 12:36:39;;;;;;;5.68;1.30;;;;;20.40;94494.00;;;;7392456;19;20156;-82
2022/09/22 12:39:23;;;;;;;2.08;1.40;;;;;19.80;94485.00;;;;7395072;19;20156;-83
2022/09/22 12:41:59;;;;;;;4.00;1.40;;;;;19.70;94487.00;;;;7393576;19;20125;-83
2022/09/22 12:44:49;;;;;;;1.98;1.50;;;;;20.10;94484.00;;;;7394382;19;20514;-83
2022/09/22 12:47:35;;;;;;;1.55;1.30;;;;;19.50;94487.00;;;;7392555;19;20208;-84
2022/09/22 12:50:25;;;;;;;2.40;1.70;;;;;19.60;94490.00;;;;7393869;19;20156;-81
2022/09/22 12:53:09;;;;;;;1.77;1.58;;;;;18.90;94491.00;;;;7393788;19;20164;-80
2022/09/22 12:55:37;;;;;;;3.90;1.35;;;;;18.30;94483.00;;;;7389732;19;20133;-81
2022/09/22 12:58:21;;;;;;;1.65;1.52;;;;;17.90;94476.00;;;;7393451;19;20149;-83
2022/09/22 13:00:50;;;;;;;1.92;1.60;;;;;18.50;94473.00;;;;7394943;19;20144;-84
2022/09/22 13:03:24;;;;;;;2.10;1.23;;;;;18.70;94482.00;;;;7391388;19;20445;-84
2022/09/22 13:06:01;;;;;;;4.20;1.48;;;;;18.90;94476.00;;;;7391966;19;20129;-83
2022/09/22 13:08:35;;;;;;;1.88;1.67;;;;;19.20;94471.00;;;;7397153;19;20143;-83
2022/09/22 13:11:07;;;;;;;2.28;1.58;;;;;19.10;94480.00;;;;7394470;19;20142;-82
2022/09/22 13:13:36;;;;;;;3.10;1.60;;;;;18.70;94472.00;;;;7390645;19;20472;-81
2022/09/22 13:16:25;;;;;;;1.95;1.17;;;;;19.10;94478.00;;;;7389593;19;20590;-82
2022/09/22 13:19:00;;;;;;;1.23;1.10;;;;;19.00;94476.00;;;;7395199;19;20129;-81
2022/09/22 13:21:34;;;;;;;2.45;1.27;;;;;18.60;94472.00;;;;7390980;19;20148;-84
2022/09/22 13:24:05;;;;;;;1.90;1.30;;;;;18.40;94473.00;;;;7391568;19;20136;-83
2022/09/22 13:26:34;;;;;;;4.38;1.50;;;;;17.80;94463.00;;;;7391807;19;20260;-84
2022/09/22 13:29:12;;;;;;;1.83;1.15;;;;;18.00;94473.00;;;;7393934;19;20583;-84
2022/09/22 13:31:44;;;;;;;2.30;1.58;;;;;18.20;94475.00;;;;7390195;19;20139;-84
2022/09/22 13:34:34;;;;;;;3.20;1.75;;;;;18.20;94472.00;;;;7392798;19;20153;-83
2022/09/22 13:37:19;;;;;;;4.63;2.60;;;;;18.20;94465.00;;;;7395708;19;20133;-83